F72 weather

Franklin Field
Franklin, California, United States

Public forecast

Using degrees Fahrenheit for public forecast. Weather courtesy of forecast.io.

Closest aviation weather report (METAR) to Franklin Field

Closest report is Sacramento Executive Airport, 12.8 nm (23.7 km) NNW. Retrieved 2020/01/21 21:53 UTC (40 minutes ago):

KSAC 212153Z 15007KT 8SM -RA FEW035 BKN055 OVC070 14/09 A3009 RMK AO2 RAB18 SLP188 P0000 T01390089

Closest aviation forecast (TAF) to Franklin Field

Closest forecast is Sacramento Executive Airport, 12.8 nm (23.7 km) NNW. Retrieved 2020/01/21 18:30 UTC (4 hours ago):

TAF KSAC 211726Z 2118/2218 15005KT 2SM -RA BR BKN040 OVC050 FM212000 15007KT 4SM -RA OVC015 FM220300 14003KT 4SM HZ OVC007 FM221000 VRB03KT 2SM BR OVC004